createdAt,value
2023-01-27T00:01:34.284Z,81.49
2023-01-27T00:04:02.585Z,81.59
2023-01-27T00:06:36.595Z,81.95
2023-01-27T00:09:04.966Z,81.80
2023-01-27T00:11:52.386Z,82.03
2023-01-27T00:14:20.876Z,82.00
2023-01-27T00:16:49.558Z,82.03
2023-01-27T00:19:20.098Z,82.28
2023-01-27T00:22:07.517Z,82.29
2023-01-27T00:24:38.663Z,82.10
2023-01-27T00:27:09.681Z,82.26
2023-01-27T00:29:41.167Z,82.17
2023-01-27T00:32:29.297Z,82.07
2023-01-27T00:34:57.579Z,81.88
2023-01-27T00:37:25.751Z,82.06
2023-01-27T00:39:54.958Z,82.01
2023-01-27T00:42:23.339Z,82.06
2023-01-27T00:45:10.661Z,81.52
2023-01-27T00:47:38.875Z,81.37
2023-01-27T00:50:08.126Z,81.32
2023-01-27T00:52:37.041Z,81.03
2023-01-27T00:55:06.358Z,80.81
2023-01-27T00:57:35.075Z,80.69
2023-01-27T01:00:06.982Z,80.47
2023-01-27T01:02:35.876Z,80.38
2023-01-27T01:05:05.940Z,80.64
2023-01-27T01:07:34.307Z,80.45
2023-01-27T01:10:02.789Z,80.83
2023-01-27T01:12:30.941Z,80.96
2023-01-27T01:14:59.671Z,81.62
2023-01-27T01:17:28.047Z,81.35
2023-01-27T01:19:56.432Z,81.50
2023-01-27T01:22:24.616Z,81.46
2023-01-27T01:24:53.715Z,81.60
2023-01-27T01:27:21.896Z,81.64
2023-01-27T01:29:50.377Z,81.37
2023-01-27T01:32:18.760Z,81.52
2023-01-27T01:34:47.044Z,81.40
2023-01-27T01:37:18.193Z,81.13
2023-01-27T01:39:46.381Z,81.51
2023-01-27T01:42:14.756Z,81.36
2023-01-27T01:44:45.829Z,81.14
2023-01-27T01:47:18.175Z,81.06
2023-01-27T01:49:47.845Z,81.24
2023-01-27T01:52:21.475Z,81.57
2023-01-27T01:54:55.156Z,81.37
2023-01-27T01:57:33.213Z,81.60
2023-01-27T02:00:07.341Z,81.31
2023-01-27T02:02:54.841Z,81.21
2023-01-27T02:05:32.230Z,81.16
2023-01-27T02:08:25.892Z,81.13
2023-01-27T02:10:54.890Z,81.13
2023-01-27T02:13:23.172Z,80.83
2023-01-27T02:15:54.015Z,80.86
2023-01-27T02:18:22.601Z,80.32
2023-01-27T02:20:54.334Z,80.54
2023-01-27T02:23:51.017Z,80.72
2023-01-27T02:26:27.263Z,80.62
2023-01-27T02:28:59.530Z,80.80
2023-01-27T02:31:28.683Z,80.44
2023-01-27T02:34:03.570Z,80.43
2023-01-27T02:36:35.323Z,80.19
2023-01-27T02:39:07.610Z,80.32
2023-01-27T02:41:57.256Z,80.49
2023-01-27T02:44:27.501Z,80.42
2023-01-27T02:46:56.288Z,80.10
2023-01-27T02:49:25.695Z,79.98
2023-01-27T02:51:54.191Z,79.95
2023-01-27T02:54:25.950Z,79.81
2023-01-27T02:56:54.224Z,79.93
2023-01-27T02:59:24.295Z,79.66
2023-01-27T03:01:53.147Z,79.28
2023-01-27T03:04:22.350Z,79.33
2023-01-27T03:06:50.643Z,79.34
2023-01-27T03:09:18.813Z,79.09
2023-01-27T03:12:06.227Z,79.04
2023-01-27T03:14:53.137Z,79.05
2023-01-27T03:17:40.452Z,78.87
2023-01-27T03:20:10.499Z,78.95
2023-01-27T03:22:38.899Z,79.03
2023-01-27T03:25:08.390Z,79.05
2023-01-27T03:27:37.061Z,79.10
2023-01-27T03:30:20.793Z,79.18
2023-01-27T03:32:58.450Z,79.23
2023-01-27T03:36:23.361Z,79.04
2023-01-27T03:39:11.412Z,78.99
2023-01-27T03:41:58.708Z,79.12
2023-01-27T03:44:46.639Z,79.37
2023-01-27T03:47:15.541Z,79.45
2023-01-27T03:49:44.225Z,79.54
2023-01-27T03:52:12.406Z,79.40
2023-01-27T03:54:40.790Z,79.51
2023-01-27T03:57:09.690Z,79.53
2023-01-27T03:59:37.867Z,79.44
2023-01-27T04:02:25.216Z,79.28
2023-01-27T04:05:13.354Z,79.13
2023-01-27T04:07:41.810Z,79.30
2023-01-27T04:10:11.187Z,79.30
2023-01-27T04:12:39.495Z,79.24
2023-01-27T04:15:08.752Z,79.03
2023-01-27T04:17:39.197Z,79.07
2023-01-27T04:20:08.467Z,78.78
2023-01-27T04:22:36.618Z,78.91
2023-01-27T04:25:05.898Z,78.39
2023-01-27T04:27:34.519Z,78.37
2023-01-27T04:30:02.905Z,78.11
2023-01-27T04:32:31.174Z,77.91
2023-01-27T04:34:59.361Z,78.02
2023-01-27T04:37:27.851Z,77.74
2023-01-27T04:39:56.033Z,77.44
2023-01-27T04:42:24.724Z,77.64
2023-01-27T04:44:53.205Z,77.53
2023-01-27T04:47:21.687Z,77.18
2023-01-27T04:49:49.965Z,77.19
2023-01-27T04:52:18.150Z,77.46
2023-01-27T04:54:46.336Z,77.44
2023-01-27T04:57:15.228Z,77.50
2023-01-27T04:59:43.711Z,77.65
2023-01-27T05:02:12.180Z,77.37
2023-01-27T05:04:40.491Z,77.35
2023-01-27T05:07:09.785Z,77.41
2023-01-27T05:09:38.173Z,77.62
2023-01-27T05:12:06.564Z,77.59
2023-01-27T05:14:35.159Z,77.66
2023-01-27T05:17:03.519Z,77.58
2023-01-27T05:19:32.021Z,77.69
2023-01-27T05:22:00.510Z,77.96
2023-01-27T05:24:28.975Z,78.25
2023-01-27T05:26:57.886Z,78.49
2023-01-27T05:29:26.477Z,78.61
2023-01-27T05:31:55.283Z,78.83
2023-01-27T05:34:23.967Z,78.88
2023-01-27T05:36:52.139Z,79.01
2023-01-27T05:39:20.322Z,79.39
2023-01-27T05:41:49.423Z,79.17
2023-01-27T05:44:18.110Z,79.46
2023-01-27T05:46:46.749Z,79.05
2023-01-27T05:49:14.983Z,79.04
2023-01-27T05:51:43.180Z,79.04
2023-01-27T05:54:11.549Z,79.02
2023-01-27T05:56:40.886Z,79.28
2023-01-27T05:59:10.693Z,79.26
2023-01-27T06:01:39.807Z,79.31
2023-01-27T06:04:09.586Z,79.48
2023-01-27T06:06:38.203Z,79.28
2023-01-27T06:09:06.468Z,79.34
2023-01-27T06:11:34.945Z,79.65
2023-01-27T06:14:03.238Z,79.36
2023-01-27T06:16:31.856Z,79.39
2023-01-27T06:19:00.300Z,78.61
2023-01-27T06:21:28.771Z,78.35
2023-01-27T06:23:58.469Z,78.34
2023-01-27T06:26:26.990Z,78.27
2023-01-27T06:28:57.796Z,77.73
2023-01-27T06:31:27.652Z,78.06
2023-01-27T06:33:55.937Z,77.79
2023-01-27T06:36:24.519Z,77.43
2023-01-27T06:38:53.109Z,77.34
2023-01-27T06:41:21.603Z,77.35
2023-01-27T06:43:49.977Z,77.29
2023-01-27T06:46:18.381Z,77.35
2023-01-27T06:48:46.757Z,77.16
2023-01-27T06:51:16.075Z,77.15
2023-01-27T06:53:44.547Z,77.60
2023-01-27T06:56:12.927Z,77.98
2023-01-27T06:58:41.207Z,77.82
2023-01-27T07:01:09.813Z,78.21
2023-01-27T07:03:38.282Z,78.34
2023-01-27T07:06:06.977Z,78.80
2023-01-27T07:08:35.358Z,78.93
2023-01-27T07:11:05.346Z,79.11
2023-01-27T07:13:33.871Z,78.95
2023-01-27T07:16:02.492Z,79.21
2023-01-27T07:18:31.363Z,79.41
2023-01-27T07:20:59.530Z,79.45
2023-01-27T07:23:27.717Z,79.59
2023-01-27T07:25:55.902Z,79.52
2023-01-27T07:28:24.383Z,79.71
2023-01-27T07:30:52.884Z,79.55
2023-01-27T07:33:21.256Z,79.59
2023-01-27T07:35:50.087Z,79.62
2023-01-27T07:38:18.749Z,79.64
2023-01-27T07:40:47.544Z,79.61
2023-01-27T07:43:16.055Z,79.42
2023-01-27T07:45:49.179Z,79.65
2023-01-27T07:48:17.901Z,79.70
2023-01-27T07:50:46.797Z,79.80
2023-01-27T07:53:15.797Z,79.41
2023-01-27T07:55:44.187Z,78.82
2023-01-27T07:58:12.476Z,78.62
2023-01-27T08:00:41.420Z,78.30
2023-01-27T08:03:21.952Z,77.25
2023-01-27T08:05:50.712Z,77.47
2023-01-27T08:08:19.409Z,77.62
2023-01-27T08:10:49.553Z,77.68
2023-01-27T08:13:18.446Z,77.59
2023-01-27T08:15:46.809Z,77.52
2023-01-27T08:18:14.887Z,77.26
2023-01-27T08:20:45.147Z,77.02
2023-01-27T08:23:14.418Z,76.89
2023-01-27T08:25:48.845Z,76.76
2023-01-27T08:28:17.237Z,76.71
2023-01-27T08:30:46.992Z,76.83
2023-01-27T08:33:15.195Z,77.03
2023-01-27T08:35:44.992Z,76.48
2023-01-27T08:38:15.230Z,76.32
2023-01-27T08:40:43.753Z,75.87
2023-01-27T08:43:13.622Z,76.15
2023-01-27T08:45:42.297Z,76.21
2023-01-27T08:48:12.355Z,76.21
2023-01-27T08:50:41.077Z,75.95
2023-01-27T08:53:09.275Z,75.74
2023-01-27T08:55:37.651Z,75.16
2023-01-27T08:58:06.740Z,74.31
2023-01-27T09:00:35.642Z,74.46
2023-01-27T09:03:04.228Z,74.39
2023-01-27T09:05:32.923Z,74.07
2023-01-27T09:08:01.427Z,74.32
2023-01-27T09:10:29.686Z,74.59
2023-01-27T09:12:58.084Z,74.03
2023-01-27T09:15:26.458Z,74.25
2023-01-27T09:17:54.840Z,74.15
2023-01-27T09:20:23.640Z,73.02
2023-01-27T09:22:54.692Z,72.77
2023-01-27T09:25:23.523Z,72.44
2023-01-27T09:27:56.972Z,72.82
2023-01-27T09:30:26.597Z,72.60
2023-01-27T09:33:00.265Z,72.61
2023-01-27T09:35:36.469Z,71.77
2023-01-27T09:38:07.088Z,71.60
2023-01-27T09:41:08.222Z,72.08
2023-01-27T09:44:10.381Z,71.93
2023-01-27T09:46:49.300Z,71.80
2023-01-27T09:49:48.799Z,72.23
2023-01-27T09:52:46.829Z,70.57
2023-01-27T09:55:36.936Z,71.21
2023-01-27T09:58:41.546Z,71.20
2023-01-27T10:01:43.290Z,71.07
2023-01-27T10:04:27.193Z,70.29
2023-01-27T10:07:01.569Z,70.34
2023-01-27T10:09:38.843Z,69.99
2023-01-27T10:12:22.606Z,70.27
2023-01-27T10:14:56.897Z,70.53
2023-01-27T10:17:28.352Z,70.24
2023-01-27T10:20:15.171Z,70.67
2023-01-27T10:23:18.025Z,70.19
2023-01-27T10:25:55.214Z,70.63
2023-01-27T10:28:27.790Z,70.89
2023-01-27T10:31:03.552Z,70.97
2023-01-27T10:33:51.877Z,70.94
2023-01-27T10:36:30.599Z,71.25
2023-01-27T10:39:10.651Z,70.83
2023-01-27T10:41:58.483Z,70.70
2023-01-27T10:44:42.421Z,70.96
2023-01-27T10:47:16.948Z,70.90
2023-01-27T10:49:53.879Z,70.76
2023-01-27T10:52:28.135Z,70.25
2023-01-27T10:55:15.261Z,70.09
2023-01-27T10:58:10.382Z,70.27
2023-01-27T11:01:19.233Z,70.47
2023-01-27T11:03:44.071Z,70.67
2023-01-27T11:06:20.432Z,70.52
2023-01-27T11:08:54.334Z,69.98
2023-01-27T11:11:44.364Z,69.95
2023-01-27T11:14:38.544Z,70.14
2023-01-27T11:17:24.782Z,69.86
2023-01-27T11:20:13.493Z,69.61
2023-01-27T11:22:55.907Z,69.51
2023-01-27T11:25:36.489Z,69.71
2023-01-27T11:28:20.125Z,69.90
2023-01-27T11:31:02.861Z,69.94
2023-01-27T11:33:58.754Z,70.04
2023-01-27T11:36:27.335Z,70.27
2023-01-27T11:39:03.913Z,70.06
2023-01-27T11:41:40.376Z,69.76
2023-01-27T11:44:32.649Z,69.09
2023-01-27T11:47:04.782Z,69.36
2023-01-27T11:49:42.163Z,68.95
2023-01-27T11:52:14.097Z,69.12
2023-01-27T11:55:08.208Z,69.11
2023-01-27T11:57:41.571Z,69.32
2023-01-27T12:00:24.927Z,69.41
2023-01-27T12:03:04.623Z,69.20
2023-01-27T12:05:41.761Z,69.33
2023-01-27T12:08:10.243Z,69.19
2023-01-27T12:10:44.360Z,69.51
2023-01-27T12:13:19.335Z,69.14
2023-01-27T12:15:53.235Z,69.13
2023-01-27T12:18:23.833Z,69.16
2023-01-27T12:21:03.906Z,69.25
2023-01-27T12:23:47.622Z,69.45
2023-01-27T12:26:16.310Z,69.48
2023-01-27T12:28:53.495Z,69.95
2023-01-27T12:31:30.853Z,70.00
2023-01-27T12:34:19.540Z,69.36
2023-01-27T12:36:48.409Z,69.31
2023-01-27T12:39:46.282Z,69.26
2023-01-27T12:42:37.418Z,69.21
2023-01-27T12:45:32.176Z,69.72
2023-01-27T12:48:13.974Z,69.64
2023-01-27T12:50:53.085Z,69.71
2023-01-27T12:53:28.249Z,69.63
2023-01-27T12:56:14.323Z,69.69
2023-01-27T12:59:00.417Z,69.82
2023-01-27T13:01:37.600Z,69.69
2023-01-27T13:04:22.038Z,69.88
2023-01-27T13:07:16.506Z,69.90
2023-01-27T13:09:53.409Z,70.00
2023-01-27T13:12:29.979Z,69.94
2023-01-27T13:15:31.823Z,69.76
2023-01-27T13:18:12.394Z,69.69
2023-01-27T13:20:48.854Z,69.64
2023-01-27T13:23:27.880Z,69.57
2023-01-27T13:26:05.374Z,69.77
2023-01-27T13:28:52.703Z,69.74
2023-01-27T13:31:24.827Z,69.43
2023-01-27T13:34:15.766Z,69.62
2023-01-27T13:36:48.299Z,69.58
2023-01-27T13:39:43.325Z,69.66
2023-01-27T13:42:51.626Z,69.83
2023-01-27T13:45:29.014Z,70.06
2023-01-27T13:48:02.514Z,70.14
2023-01-27T13:50:37.547Z,70.28
2023-01-27T13:53:06.449Z,70.59
2023-01-27T13:55:34.624Z,70.71
2023-01-27T13:58:30.641Z,70.90
2023-01-27T14:01:24.432Z,71.06
2023-01-27T14:04:11.619Z,70.91
2023-01-27T14:06:53.962Z,70.94
2023-01-27T14:09:47.390Z,70.98
2023-01-27T14:12:24.472Z,71.07
2023-01-27T14:15:03.568Z,71.02
2023-01-27T14:18:04.308Z,70.85
2023-01-27T14:20:50.910Z,70.94
2023-01-27T14:23:47.129Z,71.07
2023-01-27T14:26:18.491Z,71.18
2023-01-27T14:29:08.363Z,71.41
2023-01-27T14:32:12.048Z,71.68
2023-01-27T14:35:01.719Z,72.00
2023-01-27T14:37:35.864Z,72.63
2023-01-27T14:40:03.909Z,73.03
2023-01-27T14:42:57.874Z,73.77
2023-01-27T14:45:33.632Z,74.36
2023-01-27T14:48:47.246Z,74.50
2023-01-27T14:51:30.365Z,74.64
2023-01-27T14:54:43.369Z,74.77
2023-01-27T14:57:40.507Z,75.17
2023-01-27T15:00:17.794Z,75.42
2023-01-27T15:03:17.187Z,75.26
2023-01-27T15:06:01.229Z,75.46
2023-01-27T15:08:53.965Z,75.73
2023-01-27T15:11:54.996Z,75.82
2023-01-27T15:14:32.793Z,76.02
2023-01-27T15:17:19.193Z,76.25
2023-01-27T15:20:02.843Z,76.55
2023-01-27T15:22:40.224Z,76.47
2023-01-27T15:25:19.889Z,76.70
2023-01-27T15:27:53.568Z,77.16
2023-01-27T15:30:26.717Z,77.23
2023-01-27T15:32:55.552Z,77.20
2023-01-27T15:35:28.342Z,77.64
2023-01-27T15:38:01.295Z,78.03
2023-01-27T15:40:30.327Z,77.96
2023-01-27T15:43:00.651Z,78.36
2023-01-27T15:45:43.722Z,78.61
2023-01-27T15:48:17.995Z,78.81
2023-01-27T15:51:07.171Z,79.02
2023-01-27T15:53:41.970Z,79.06
2023-01-27T15:56:10.925Z,79.17
2023-01-27T15:58:43.254Z,79.24
2023-01-27T16:01:33.530Z,79.19
2023-01-27T16:04:13.904Z,79.49
2023-01-27T16:06:49.472Z,79.46
2023-01-27T16:09:35.853Z,79.59
2023-01-27T16:12:36.360Z,79.88
2023-01-27T16:15:23.889Z,80.16
2023-01-27T16:17:57.884Z,80.19
2023-01-27T16:20:33.009Z,80.35
2023-01-27T16:23:17.166Z,80.29
2023-01-27T16:25:46.580Z,80.38
2023-01-27T16:28:21.406Z,80.55
2023-01-27T16:31:11.186Z,80.44
2023-01-27T16:33:44.513Z,80.64
2023-01-27T16:36:24.670Z,80.77
2023-01-27T16:38:54.550Z,80.98
2023-01-27T16:41:32.963Z,80.97
2023-01-27T16:44:16.494Z,81.20
2023-01-27T16:46:58.355Z,81.10
2023-01-27T16:49:40.811Z,81.19
2023-01-27T16:52:18.955Z,81.16
2023-01-27T16:54:52.723Z,81.04
2023-01-27T16:57:29.378Z,81.08
2023-01-27T17:00:00.647Z,81.02
2023-01-27T17:02:32.398Z,81.03
2023-01-27T17:05:04.565Z,81.13
2023-01-27T17:07:32.955Z,81.22
2023-01-27T17:10:18.911Z,81.16
2023-01-27T17:12:52.659Z,81.27
2023-01-27T17:15:38.157Z,81.31
2023-01-27T17:18:11.492Z,81.54
2023-01-27T17:20:42.928Z,81.52
2023-01-27T17:23:29.315Z,81.36
2023-01-27T17:25:57.909Z,81.88
2023-01-27T17:28:28.574Z,81.94
2023-01-27T17:31:06.363Z,82.25
2023-01-27T17:33:37.982Z,82.15
2023-01-27T17:36:13.148Z,82.13
2023-01-27T17:38:50.609Z,82.29
2023-01-27T17:41:28.673Z,82.29
2023-01-27T17:44:01.592Z,82.38
2023-01-27T17:46:33.325Z,82.65
2023-01-27T17:49:06.113Z,82.63
2023-01-27T17:51:36.949Z,82.82
2023-01-27T17:54:19.456Z,82.70
2023-01-27T17:56:51.430Z,82.88
2023-01-27T17:59:22.255Z,82.85
2023-01-27T18:01:54.126Z,82.86
2023-01-27T18:04:24.357Z,82.81
2023-01-27T18:06:53.043Z,82.76
2023-01-27T18:09:27.092Z,82.54
2023-01-27T18:12:02.091Z,82.83
2023-01-27T18:14:35.191Z,82.63
2023-01-27T18:17:05.104Z,82.79
2023-01-27T18:19:34.417Z,82.60
2023-01-27T18:22:16.584Z,82.69
2023-01-27T18:25:01.692Z,83.00
2023-01-27T18:27:33.729Z,83.15
2023-01-27T18:30:10.720Z,83.52
2023-01-27T18:32:41.576Z,83.70
2023-01-27T18:35:28.978Z,83.86
2023-01-27T18:38:02.995Z,84.08
2023-01-27T18:40:37.320Z,84.36
2023-01-27T18:43:06.124Z,84.36
2023-01-27T18:45:34.501Z,84.30
2023-01-27T18:48:04.007Z,84.21
2023-01-27T18:50:41.495Z,84.36
2023-01-27T18:53:20.742Z,84.48
2023-01-27T18:55:49.046Z,84.37
2023-01-27T18:58:18.313Z,84.62
2023-01-27T19:00:50.401Z,84.62
2023-01-27T19:03:23.347Z,84.41
2023-01-27T19:05:51.755Z,84.61
2023-01-27T19:08:22.978Z,84.72
2023-01-27T19:10:51.887Z,84.72
2023-01-27T19:13:20.713Z,84.71
2023-01-27T19:15:55.067Z,84.77
2023-01-27T19:18:34.769Z,84.60
2023-01-27T19:21:03.555Z,84.78
2023-01-27T19:23:32.992Z,84.60
2023-01-27T19:26:05.339Z,84.48
2023-01-27T19:28:38.117Z,84.45
2023-01-27T19:31:07.860Z,84.30
2023-01-27T19:33:39.397Z,84.29
2023-01-27T19:36:16.375Z,84.29
2023-01-27T19:38:44.963Z,84.21
2023-01-27T19:41:13.149Z,84.04
2023-01-27T19:43:42.252Z,83.99
2023-01-27T19:46:16.357Z,83.88
2023-01-27T19:48:44.749Z,83.82
2023-01-27T19:51:13.432Z,83.53
2023-01-27T19:53:41.610Z,83.56
2023-01-27T19:56:22.641Z,83.69
2023-01-27T19:58:53.717Z,83.53
2023-01-27T20:01:24.927Z,83.38
2023-01-27T20:03:54.664Z,83.37
2023-01-27T20:06:26.250Z,83.48
2023-01-27T20:08:56.376Z,83.19
2023-01-27T20:11:42.081Z,83.04
2023-01-27T20:14:16.282Z,82.84
2023-01-27T20:16:45.092Z,82.72
2023-01-27T20:19:17.647Z,82.50
2023-01-27T20:21:47.061Z,82.34
2023-01-27T20:24:17.573Z,82.17
2023-01-27T20:26:46.417Z,82.25
2023-01-27T20:29:15.190Z,82.16
2023-01-27T20:31:43.917Z,82.32
2023-01-27T20:34:12.253Z,82.47
2023-01-27T20:36:40.844Z,82.58
2023-01-27T20:39:09.226Z,82.65
2023-01-27T20:41:37.408Z,82.71
2023-01-27T20:44:05.894Z,82.83
2023-01-27T20:46:34.990Z,83.29
2023-01-27T20:49:03.184Z,83.44
2023-01-27T20:51:31.765Z,83.33
2023-01-27T20:54:00.908Z,83.21
2023-01-27T20:56:29.347Z,83.38
2023-01-27T20:58:57.937Z,83.40
2023-01-27T21:01:26.778Z,83.49
2023-01-27T21:03:55.116Z,83.50
2023-01-27T21:06:23.603Z,83.44
2023-01-27T21:08:51.787Z,83.49
2023-01-27T21:11:21.528Z,83.73
2023-01-27T21:13:51.729Z,83.70
2023-01-27T21:16:20.547Z,83.61
2023-01-27T21:18:49.314Z,83.91
2023-01-27T21:21:28.653Z,84.03
2023-01-27T21:24:00.105Z,83.97
2023-01-27T21:26:28.490Z,84.14
2023-01-27T21:28:57.586Z,84.18
2023-01-27T21:31:30.402Z,84.25
2023-01-27T21:34:00.333Z,84.20
2023-01-27T21:36:28.983Z,84.12
2023-01-27T21:38:57.980Z,84.14
2023-01-27T21:41:44.909Z,83.90
2023-01-27T21:44:39.897Z,83.85
2023-01-27T21:47:11.745Z,84.19
2023-01-27T21:50:01.817Z,84.17
2023-01-27T21:52:36.767Z,84.14
2023-01-27T21:55:08.528Z,84.35
2023-01-27T21:57:37.206Z,84.40
2023-01-27T22:00:07.765Z,84.42
2023-01-27T22:02:42.834Z,84.37
2023-01-27T22:05:12.761Z,84.48
2023-01-27T22:07:41.908Z,84.44
2023-01-27T22:10:18.687Z,84.45
2023-01-27T22:12:47.283Z,84.39
2023-01-27T22:15:17.598Z,84.28
2023-01-27T22:17:46.741Z,84.27
2023-01-27T22:20:16.334Z,84.34
2023-01-27T22:22:45.732Z,84.32
2023-01-27T22:25:16.065Z,84.52
2023-01-27T22:27:44.739Z,84.37
2023-01-27T22:30:16.710Z,84.21
2023-01-27T22:32:46.278Z,84.12
2023-01-27T22:35:16.540Z,83.72
2023-01-27T22:37:45.511Z,83.50
2023-01-27T22:40:16.450Z,83.46
2023-01-27T22:42:45.176Z,83.28
2023-01-27T22:45:14.098Z,83.29
2023-01-27T22:47:43.065Z,83.41
2023-01-27T22:50:12.021Z,83.38
2023-01-27T22:52:40.257Z,83.37
2023-01-27T22:55:10.780Z,83.14
2023-01-27T22:57:39.272Z,83.03
2023-01-27T23:00:09.552Z,82.97
2023-01-27T23:02:37.928Z,83.14
2023-01-27T23:05:07.288Z,83.45
2023-01-27T23:07:35.465Z,83.76
2023-01-27T23:10:04.143Z,83.97
2023-01-27T23:12:32.344Z,83.99
2023-01-27T23:15:02.667Z,84.26
2023-01-27T23:17:30.849Z,84.25
2023-01-27T23:19:59.021Z,84.54
2023-01-27T23:22:27.305Z,84.61
2023-01-27T23:24:55.793Z,84.68
2023-01-27T23:27:24.791Z,85.11
2023-01-27T23:29:53.175Z,85.03
2023-01-27T23:32:21.663Z,85.25
2023-01-27T23:34:50.535Z,84.77
2023-01-27T23:37:18.843Z,84.69
2023-01-27T23:39:49.762Z,84.56
2023-01-27T23:42:18.779Z,84.73
2023-01-27T23:44:47.368Z,84.52
2023-01-27T23:47:17.090Z,84.33
2023-01-27T23:49:45.471Z,83.73
2023-01-27T23:52:13.856Z,83.67
2023-01-27T23:54:42.237Z,83.42
2023-01-27T23:57:11.069Z,83.51
2023-01-27T23:59:41.379Z,83.57
